createdAt,value
2019-06-08T00:01:33.175Z,10.78
2019-06-08T00:04:02.979Z,11.57
2019-06-08T00:06:32.794Z,10.82
2019-06-08T00:09:02.591Z,10.90
2019-06-08T00:11:33.138Z,10.45
2019-06-08T00:14:03.117Z,11.17
2019-06-08T00:16:32.971Z,10.63
2019-06-08T00:19:02.891Z,9.83
2019-06-08T00:21:32.745Z,10.30
2019-06-08T00:24:02.734Z,8.83
2019-06-08T00:26:32.613Z,11.43
2019-06-08T00:29:02.401Z,8.83
2019-06-08T00:31:32.123Z,9.50
2019-06-08T00:34:02.042Z,8.98
2019-06-08T00:36:31.987Z,8.68
2019-06-08T00:39:01.942Z,8.70
2019-06-08T00:41:33.291Z,10.10
2019-06-08T00:44:03.181Z,10.25
2019-06-08T00:46:34.047Z,8.60
2019-06-08T00:49:03.907Z,9.17
2019-06-08T00:51:33.857Z,8.23
2019-06-08T00:54:03.850Z,9.90
2019-06-08T00:56:33.766Z,9.23
2019-06-08T00:59:04.683Z,9.43
2019-06-08T01:01:34.655Z,9.80
2019-06-08T01:04:04.602Z,10.25
2019-06-08T01:06:34.475Z,9.65
2019-06-08T01:09:04.998Z,10.23
2019-06-08T01:11:34.914Z,9.88
2019-06-08T01:14:05.874Z,10.23
2019-06-08T01:16:35.717Z,8.68
2019-06-08T01:19:05.742Z,9.33
2019-06-08T01:21:36.407Z,9.07
2019-06-08T01:24:06.284Z,10.55
2019-06-08T01:26:36.209Z,9.55
2019-06-08T01:29:06.070Z,9.25
2019-06-08T01:31:36.786Z,8.90
2019-06-08T01:34:06.693Z,9.10
2019-06-08T01:36:36.611Z,9.45
2019-06-08T01:39:07.353Z,9.95
2019-06-08T01:41:37.204Z,8.97
2019-06-08T01:44:07.098Z,9.50
2019-06-08T01:46:36.978Z,11.77
2019-06-08T01:49:06.847Z,8.90
2019-06-08T01:51:36.679Z,9.05
2019-06-08T01:54:06.547Z,10.80
2019-06-08T01:56:36.437Z,9.23
2019-06-08T01:59:06.311Z,9.03
2019-06-08T02:01:36.135Z,9.80
2019-06-08T02:04:06.061Z,9.53
2019-06-08T02:06:35.987Z,11.80
2019-06-08T02:09:07.818Z,9.20
2019-06-08T02:11:37.711Z,11.15
2019-06-08T02:14:07.499Z,9.75
2019-06-08T02:16:37.278Z,10.48
2019-06-08T02:19:07.094Z,9.73
2019-06-08T02:21:36.937Z,10.20
2019-06-08T02:24:06.882Z,9.65
2019-06-08T02:26:36.745Z,10.85
2019-06-08T02:29:06.579Z,11.33
2019-06-08T02:31:37.756Z,10.05
2019-06-08T02:34:07.763Z,10.35
2019-06-08T02:36:38.652Z,10.72
2019-06-08T02:39:08.643Z,9.30
2019-06-08T02:41:39.939Z,10.60
2019-06-08T02:44:11.097Z,10.43
2019-06-08T02:46:41.130Z,9.73
2019-06-08T02:49:10.970Z,10.05
2019-06-08T02:51:41.247Z,9.40
2019-06-08T02:54:11.934Z,10.75
2019-06-08T02:56:41.817Z,12.90
2019-06-08T02:59:13.630Z,10.33
2019-06-08T03:01:43.496Z,10.65
2019-06-08T03:04:13.368Z,10.45
2019-06-08T03:06:43.166Z,11.35
2019-06-08T03:09:12.871Z,10.32
2019-06-08T03:11:42.784Z,10.65
2019-06-08T03:14:13.018Z,9.57
2019-06-08T03:16:43.316Z,12.30
2019-06-08T03:19:21.453Z,10.43
2019-06-08T03:21:44.887Z,10.48
2019-06-08T03:24:14.781Z,11.38
2019-06-08T03:26:44.500Z,10.00
2019-06-08T03:29:14.543Z,10.35
2019-06-08T03:31:54.109Z,10.13
2019-06-08T03:34:16.388Z,11.17
2019-06-08T03:36:55.223Z,10.35
2019-06-08T03:39:19.082Z,9.88
2019-06-08T03:41:48.970Z,10.32
2019-06-08T03:44:18.895Z,10.00
2019-06-08T03:46:48.756Z,9.68
2019-06-08T03:49:18.514Z,11.88
2019-06-08T03:51:48.986Z,10.28
2019-06-08T03:54:19.003Z,10.63
2019-06-08T03:56:48.703Z,9.90
2019-06-08T03:59:18.563Z,10.55
2019-06-08T04:01:49.874Z,10.53
2019-06-08T04:04:19.926Z,9.43
2019-06-08T04:06:50.034Z,10.18
2019-06-08T04:09:20.015Z,9.80
2019-06-08T04:11:50.286Z,10.40
2019-06-08T04:14:20.394Z,10.27
2019-06-08T04:16:50.438Z,12.10
2019-06-08T04:19:20.443Z,10.93
2019-06-08T04:21:50.665Z,10.28
2019-06-08T04:24:20.603Z,9.25
2019-06-08T04:26:50.724Z,9.63
2019-06-08T04:29:20.724Z,10.55
2019-06-08T04:31:50.428Z,9.60
2019-06-08T04:34:20.280Z,11.68
2019-06-08T04:36:50.476Z,10.20
2019-06-08T04:39:20.637Z,10.20
2019-06-08T04:41:51.052Z,10.48
2019-06-08T04:44:21.138Z,10.40
2019-06-08T04:46:51.059Z,9.43
2019-06-08T04:49:20.955Z,12.03
2019-06-08T04:51:50.869Z,10.48
2019-06-08T04:54:20.654Z,9.60
2019-06-08T04:56:50.543Z,13.13
2019-06-08T04:59:20.397Z,9.83
2019-06-08T05:01:50.339Z,13.17
2019-06-08T05:04:20.212Z,10.37
2019-06-08T05:06:50.172Z,9.95
2019-06-08T05:09:20.037Z,10.35
2019-06-08T05:11:50.018Z,9.98
2019-06-08T05:14:21.010Z,10.13
2019-06-08T05:16:50.855Z,10.08
2019-06-08T05:19:20.633Z,11.60
2019-06-08T05:21:50.499Z,11.43
2019-06-08T05:24:20.298Z,9.90
2019-06-08T05:26:50.148Z,9.78
2019-06-08T05:29:19.993Z,10.68
2019-06-08T05:31:49.966Z,9.98
2019-06-08T05:34:19.883Z,10.40
2019-06-08T05:36:50.148Z,9.43
2019-06-08T05:39:20.047Z,10.10
2019-06-08T05:41:49.982Z,10.32
2019-06-08T05:44:19.933Z,10.10
2019-06-08T05:46:50.102Z,9.78
2019-06-08T05:49:20.158Z,12.95
2019-06-08T05:51:51.022Z,10.58
2019-06-08T05:54:21.338Z,10.10
2019-06-08T05:56:51.175Z,10.38
2019-06-08T05:59:22.464Z,9.53
2019-06-08T06:01:52.238Z,9.63
2019-06-08T06:04:23.015Z,11.15
2019-06-08T06:06:52.850Z,10.40
2019-06-08T06:09:22.789Z,10.25
2019-06-08T06:11:52.574Z,10.60
2019-06-08T06:14:22.390Z,10.20
2019-06-08T06:16:52.359Z,10.70
2019-06-08T06:19:22.212Z,9.93
2019-06-08T06:21:52.000Z,9.80
2019-06-08T06:24:21.825Z,10.50
2019-06-08T06:26:51.797Z,9.83
2019-06-08T06:29:21.735Z,10.18
2019-06-08T06:31:52.117Z,9.28
2019-06-08T06:34:22.233Z,9.85
2019-06-08T06:36:52.273Z,9.98
2019-06-08T06:39:23.331Z,9.80
2019-06-08T06:41:53.175Z,9.83
2019-06-08T06:44:23.039Z,10.13
2019-06-08T06:46:52.902Z,9.70
2019-06-08T06:49:22.757Z,10.30
2019-06-08T06:51:52.787Z,9.53
2019-06-08T06:54:22.668Z,10.08
2019-06-08T06:56:53.899Z,11.00
2019-06-08T06:59:24.121Z,9.65
2019-06-08T07:01:57.310Z,9.18
2019-06-08T07:04:25.566Z,9.47
2019-06-08T07:06:55.519Z,10.60
2019-06-08T07:09:25.461Z,9.48
2019-06-08T07:11:56.688Z,10.47
2019-06-08T07:14:26.762Z,9.30
2019-06-08T07:16:56.617Z,9.35
2019-06-08T07:19:26.520Z,9.10
2019-06-08T07:21:56.403Z,15.23
2019-06-08T07:24:26.396Z,11.10
2019-06-08T07:26:56.376Z,9.30
2019-06-08T07:29:27.189Z,9.90
2019-06-08T07:31:57.036Z,9.88
2019-06-08T07:34:27.016Z,10.27
2019-06-08T07:36:56.902Z,11.05
2019-06-08T07:39:26.758Z,10.50
2019-06-08T07:41:56.666Z,9.88
2019-06-08T07:44:26.447Z,10.48
2019-06-08T07:46:56.472Z,10.48
2019-06-08T07:49:26.313Z,10.93
2019-06-08T07:52:06.690Z,14.43
2019-06-08T07:54:27.826Z,13.45
2019-06-08T07:56:57.655Z,15.68
2019-06-08T07:59:27.525Z,14.75
2019-06-08T08:01:58.377Z,12.55
2019-06-08T08:04:29.472Z,14.95
2019-06-08T08:06:59.331Z,18.90
2019-06-08T08:09:29.733Z,17.10
2019-06-08T08:11:59.831Z,16.07
2019-06-08T08:14:29.805Z,17.57
2019-06-08T08:16:59.770Z,16.82
2019-06-08T08:19:29.637Z,20.10
2019-06-08T08:22:02.349Z,17.67
2019-06-08T08:24:31.119Z,18.50
2019-06-08T08:27:03.510Z,14.23
2019-06-08T08:29:32.555Z,17.92
2019-06-08T08:32:02.504Z,15.95
2019-06-08T08:34:32.475Z,15.43
2019-06-08T08:37:06.245Z,29.57
2019-06-08T08:39:33.987Z,16.57
2019-06-08T08:42:05.406Z,17.37
2019-06-08T08:44:37.805Z,18.67
2019-06-08T08:47:07.630Z,14.68
2019-06-08T08:49:38.953Z,15.67
2019-06-08T08:52:11.487Z,17.00
2019-06-08T08:54:42.732Z,16.00
2019-06-08T08:57:12.083Z,17.25
2019-06-08T08:59:41.983Z,14.53
2019-06-08T09:02:11.830Z,20.05
2019-06-08T09:04:41.774Z,20.92
2019-06-08T09:07:11.824Z,16.32
2019-06-08T09:09:41.753Z,20.52
2019-06-08T09:12:11.799Z,21.00
2019-06-08T09:14:41.962Z,18.65
2019-06-08T09:17:12.026Z,21.57
2019-06-08T09:19:41.952Z,14.65
2019-06-08T09:22:11.979Z,16.20
2019-06-08T09:24:41.817Z,14.75
2019-06-08T09:27:11.957Z,17.37
2019-06-08T09:29:43.019Z,16.80
2019-06-08T09:32:13.105Z,20.02
2019-06-08T09:34:43.107Z,15.63
2019-06-08T09:37:14.118Z,12.47
2019-06-08T09:39:44.018Z,14.30
2019-06-08T09:42:13.921Z,16.10
2019-06-08T09:44:43.878Z,32.13
2019-06-08T09:47:13.860Z,17.92
2019-06-08T09:49:43.899Z,16.75
2019-06-08T09:52:13.842Z,18.65
2019-06-08T09:54:43.630Z,15.40
2019-06-08T09:57:13.491Z,18.17
2019-06-08T09:59:43.643Z,16.65
2019-06-08T10:02:13.877Z,16.93
2019-06-08T10:04:50.872Z,14.78
2019-06-08T10:07:20.830Z,14.87
2019-06-08T10:09:50.689Z,15.90
2019-06-08T10:12:20.450Z,17.80
2019-06-08T10:14:50.344Z,17.02
2019-06-08T10:17:21.037Z,15.85
2019-06-08T10:19:51.192Z,21.70
2019-06-08T10:22:21.143Z,16.95
2019-06-08T10:24:50.991Z,15.00
2019-06-08T10:27:20.969Z,16.67
2019-06-08T10:29:50.930Z,17.27
2019-06-08T10:32:22.533Z,16.73
2019-06-08T10:34:52.569Z,14.55
2019-06-08T10:37:22.715Z,13.35
2019-06-08T10:39:53.768Z,14.03
2019-06-08T10:42:23.869Z,12.07
2019-06-08T10:44:54.718Z,15.05
2019-06-08T10:47:24.437Z,14.40
2019-06-08T10:49:54.405Z,12.43
2019-06-08T10:52:24.331Z,13.53
2019-06-08T10:54:54.083Z,14.98
2019-06-08T10:57:23.927Z,14.58
2019-06-08T10:59:53.810Z,19.80
2019-06-08T11:02:23.658Z,17.40
2019-06-08T11:04:53.594Z,14.93
2019-06-08T11:07:23.626Z,18.98
2019-06-08T11:09:53.483Z,17.77
2019-06-08T11:12:23.338Z,16.23
2019-06-08T11:14:53.193Z,22.60
2019-06-08T11:17:23.090Z,16.73
2019-06-08T11:19:52.972Z,25.75
2019-06-08T11:22:22.920Z,23.90
2019-06-08T11:24:52.790Z,25.48
2019-06-08T11:27:22.667Z,30.62
2019-06-08T11:29:52.683Z,27.90
2019-06-08T11:32:22.638Z,32.38
2019-06-08T11:34:52.523Z,27.48
2019-06-08T11:37:22.392Z,31.40
2019-06-08T11:39:52.307Z,31.48
2019-06-08T11:42:24.913Z,33.88
2019-06-08T11:44:53.805Z,30.50
2019-06-08T11:47:23.699Z,28.35
2019-06-08T11:49:53.660Z,31.30
2019-06-08T11:52:25.766Z,34.13
2019-06-08T11:54:57.360Z,25.53
2019-06-08T11:57:28.336Z,24.87
2019-06-08T11:59:58.539Z,27.58
2019-06-08T12:02:28.595Z,29.50
2019-06-08T12:04:58.473Z,23.55
2019-06-08T12:07:30.323Z,24.45
2019-06-08T12:10:00.083Z,25.08
2019-06-08T12:12:30.043Z,28.32
2019-06-08T12:15:00.065Z,27.07
2019-06-08T12:17:29.994Z,23.87
2019-06-08T12:19:59.774Z,26.75
2019-06-08T12:22:29.802Z,23.00
2019-06-08T12:24:59.578Z,25.68
2019-06-08T12:27:33.757Z,23.07
2019-06-08T12:30:08.149Z,21.12
2019-06-08T12:32:32.639Z,22.55
2019-06-08T12:35:02.707Z,19.07
2019-06-08T12:37:32.554Z,21.02
2019-06-08T12:40:02.431Z,21.15
2019-06-08T12:42:32.411Z,20.08
2019-06-08T12:45:02.351Z,21.00
2019-06-08T12:47:32.504Z,21.25
2019-06-08T12:50:02.498Z,24.45
2019-06-08T12:52:32.461Z,23.52
2019-06-08T12:55:06.760Z,19.90
2019-06-08T12:57:34.267Z,20.55
2019-06-08T13:00:04.198Z,20.00
2019-06-08T13:02:33.931Z,18.37
2019-06-08T13:05:04.050Z,18.70
2019-06-08T13:07:33.950Z,18.40
2019-06-08T13:10:04.205Z,18.02
2019-06-08T13:12:34.187Z,18.35
2019-06-08T13:15:04.101Z,18.30
2019-06-08T13:17:34.037Z,18.45
2019-06-08T13:20:04.411Z,17.57
2019-06-08T13:22:34.429Z,18.05
2019-06-08T13:25:21.160Z,16.48
2019-06-08T13:27:55.426Z,15.72
2019-06-08T13:30:26.432Z,20.23
2019-06-08T13:32:58.085Z,17.37
2019-06-08T13:35:30.632Z,16.87
2019-06-08T13:37:59.605Z,16.23
2019-06-08T13:40:29.554Z,18.10
2019-06-08T13:42:59.434Z,17.82
2019-06-08T13:45:29.419Z,17.62
2019-06-08T13:47:59.353Z,18.62
2019-06-08T13:50:29.318Z,16.87
2019-06-08T13:52:59.176Z,16.85
2019-06-08T13:55:47.687Z,15.58
2019-06-08T13:58:01.715Z,17.98
2019-06-08T14:00:38.172Z,15.58
2019-06-08T14:03:08.492Z,17.80
2019-06-08T14:05:39.166Z,17.92
2019-06-08T14:08:10.938Z,21.20
2019-06-08T14:10:41.227Z,21.30
2019-06-08T14:13:11.092Z,19.35
2019-06-08T14:15:41.111Z,17.27
2019-06-08T14:18:10.977Z,19.62
2019-06-08T14:20:40.882Z,18.98
2019-06-08T14:23:11.697Z,16.67
2019-06-08T14:25:50.481Z,14.63
2019-06-08T14:28:13.309Z,15.98
2019-06-08T14:30:43.350Z,15.35
2019-06-08T14:33:13.207Z,14.03
2019-06-08T14:35:43.247Z,15.00
2019-06-08T14:38:13.550Z,14.55
2019-06-08T14:40:43.433Z,12.88
2019-06-08T14:43:13.321Z,12.88
2019-06-08T14:45:43.268Z,15.35
2019-06-08T14:48:13.122Z,15.93
2019-06-08T14:50:42.933Z,14.55
2019-06-08T14:53:12.697Z,14.23
2019-06-08T14:55:42.626Z,14.30
2019-06-08T14:58:12.635Z,16.82
2019-06-08T15:00:42.666Z,15.83
2019-06-08T15:03:12.436Z,15.60
2019-06-08T15:05:42.338Z,16.27
2019-06-08T15:08:12.192Z,14.63
2019-06-08T15:10:42.116Z,18.80
2019-06-08T15:13:12.110Z,15.00
2019-06-08T15:15:41.907Z,13.18
2019-06-08T15:18:11.778Z,18.30
2019-06-08T15:20:41.773Z,16.35
2019-06-08T15:23:11.640Z,16.25
2019-06-08T15:25:41.651Z,16.85
2019-06-08T15:28:11.606Z,15.68
2019-06-08T15:30:41.477Z,18.15
2019-06-08T15:33:11.178Z,17.57
2019-06-08T15:35:41.057Z,14.83
2019-06-08T15:38:11.017Z,16.95
2019-06-08T15:40:40.959Z,16.70
2019-06-08T15:43:10.835Z,16.23
2019-06-08T15:45:40.794Z,15.00
2019-06-08T15:48:10.800Z,18.10
2019-06-08T15:50:40.661Z,18.00
2019-06-08T15:53:11.078Z,16.57
2019-06-08T15:55:41.917Z,19.20
2019-06-08T15:58:11.774Z,17.65
2019-06-08T16:00:41.983Z,18.52
2019-06-08T16:03:11.879Z,16.85
2019-06-08T16:05:41.667Z,18.87
2019-06-08T16:08:11.643Z,18.90
2019-06-08T16:10:41.523Z,20.80
2019-06-08T16:13:11.487Z,34.92
2019-06-08T16:15:41.349Z,22.85
2019-06-08T16:18:11.352Z,20.80
2019-06-08T16:20:41.308Z,19.55
2019-06-08T16:23:11.174Z,24.55
2019-06-08T16:25:41.183Z,19.23
2019-06-08T16:28:10.982Z,20.23
2019-06-08T16:30:40.853Z,21.95
2019-06-08T16:33:10.786Z,18.82
2019-06-08T16:35:40.630Z,19.20
2019-06-08T16:38:10.569Z,17.40
2019-06-08T16:40:40.557Z,20.20
2019-06-08T16:43:10.647Z,22.17
2019-06-08T16:45:40.623Z,17.47
2019-06-08T16:48:10.528Z,20.35
2019-06-08T16:50:40.425Z,18.90
2019-06-08T16:53:10.341Z,20.25
2019-06-08T16:55:40.301Z,19.37
2019-06-08T16:58:10.161Z,18.07
2019-06-08T17:00:42.109Z,18.98
2019-06-08T17:03:11.637Z,17.05
2019-06-08T17:05:41.955Z,19.20
2019-06-08T17:08:13.066Z,21.57
2019-06-08T17:10:42.930Z,18.82
2019-06-08T17:13:12.856Z,17.98
2019-06-08T17:15:42.707Z,17.57
2019-06-08T17:18:12.534Z,18.92
2019-06-08T17:20:42.509Z,16.82
2019-06-08T17:23:12.354Z,22.05
2019-06-08T17:25:42.250Z,17.85
2019-06-08T17:28:12.132Z,17.57
2019-06-08T17:30:42.004Z,16.80
2019-06-08T17:33:11.926Z,17.82
2019-06-08T17:35:42.325Z,18.65
2019-06-08T17:38:12.481Z,18.60
2019-06-08T17:40:42.548Z,29.90
2019-06-08T17:43:12.451Z,18.05
2019-06-08T17:45:42.954Z,18.65
2019-06-08T17:48:13.079Z,20.55
2019-06-08T17:50:43.076Z,21.07
2019-06-08T17:53:13.004Z,17.60
2019-06-08T17:55:43.904Z,19.95
2019-06-08T17:58:13.891Z,21.52
2019-06-08T18:00:45.103Z,18.42
2019-06-08T18:03:17.124Z,17.87
2019-06-08T18:05:48.653Z,29.77
2019-06-08T18:08:18.089Z,17.45
2019-06-08T18:10:48.362Z,17.57
2019-06-08T18:13:18.556Z,17.95
2019-06-08T18:15:49.000Z,13.55
2019-06-08T18:18:18.871Z,16.62
2019-06-08T18:20:51.892Z,16.75
2019-06-08T18:23:20.393Z,15.28
2019-06-08T18:25:50.247Z,18.27
2019-06-08T18:28:20.229Z,16.40
2019-06-08T18:30:50.091Z,16.75
2019-06-08T18:33:19.968Z,13.28
2019-06-08T18:35:49.891Z,17.57
2019-06-08T18:38:19.819Z,16.20
2019-06-08T18:40:49.700Z,17.02
2019-06-08T18:43:24.401Z,13.22
2019-06-08T18:45:57.661Z,16.32
2019-06-08T18:48:28.194Z,11.60
2019-06-08T18:50:58.280Z,16.02
2019-06-08T18:53:28.233Z,13.75
2019-06-08T18:55:58.297Z,14.80
2019-06-08T18:58:28.232Z,12.00
2019-06-08T19:00:58.354Z,13.00
2019-06-08T19:03:28.394Z,19.65
2019-06-08T19:05:59.488Z,14.95
2019-06-08T19:08:29.411Z,15.50
2019-06-08T19:10:59.359Z,12.33
2019-06-08T19:13:29.254Z,13.15
2019-06-08T19:15:59.902Z,14.78
2019-06-08T19:18:29.842Z,11.38
2019-06-08T19:20:59.703Z,16.35
2019-06-08T19:23:29.578Z,14.80
2019-06-08T19:26:00.500Z,13.03
2019-06-08T19:28:36.143Z,11.08
2019-06-08T19:31:02.316Z,14.20
2019-06-08T19:33:32.335Z,14.68
2019-06-08T19:36:02.211Z,11.73
2019-06-08T19:38:32.173Z,13.75
2019-06-08T19:41:02.023Z,13.95
2019-06-08T19:43:32.032Z,13.03
2019-06-08T19:46:02.015Z,19.37
2019-06-08T19:48:31.882Z,10.50
2019-06-08T19:51:01.965Z,9.53
2019-06-08T19:53:31.923Z,9.00
2019-06-08T19:56:01.877Z,10.50
2019-06-08T19:58:31.701Z,13.35
2019-06-08T20:01:01.489Z,7.25
2019-06-08T20:03:31.463Z,7.47
2019-06-08T20:06:01.460Z,10.25
2019-06-08T20:08:31.383Z,9.60
2019-06-08T20:11:01.346Z,10.63
2019-06-08T20:13:31.165Z,9.20
2019-06-08T20:16:02.297Z,11.70
2019-06-08T20:18:32.623Z,15.25
2019-06-08T20:21:02.489Z,10.00
2019-06-08T20:23:32.466Z,12.77
2019-06-08T20:26:02.465Z,11.35
2019-06-08T20:28:32.351Z,7.80
2019-06-08T20:31:03.182Z,11.28
2019-06-08T20:33:33.127Z,13.23
2019-06-08T20:36:03.073Z,5.87
2019-06-08T20:38:38.390Z,7.70
2019-06-08T20:41:04.771Z,10.78
2019-06-08T20:43:34.643Z,9.28
2019-06-08T20:46:04.675Z,6.28
2019-06-08T20:48:34.551Z,21.05
2019-06-08T20:51:04.440Z,7.30
2019-06-08T20:53:34.354Z,9.98
2019-06-08T20:56:04.293Z,10.80
2019-06-08T20:58:34.155Z,9.20
2019-06-08T21:01:04.082Z,6.08
2019-06-08T21:03:34.037Z,9.38
2019-06-08T21:06:03.896Z,7.00
2019-06-08T21:08:33.898Z,8.00
2019-06-08T21:11:03.733Z,7.80
2019-06-08T21:13:33.733Z,8.33
2019-06-08T21:16:03.700Z,9.98
2019-06-08T21:18:33.599Z,11.05
2019-06-08T21:21:03.446Z,7.90
2019-06-08T21:23:33.362Z,8.35
2019-06-08T21:26:03.345Z,8.03
2019-06-08T21:28:33.233Z,6.60
2019-06-08T21:31:03.191Z,6.85
2019-06-08T21:33:33.067Z,5.95
2019-06-08T21:36:05.047Z,9.10
2019-06-08T21:38:34.560Z,11.85
2019-06-08T21:41:04.378Z,7.87
2019-06-08T21:43:34.291Z,6.85
2019-06-08T21:46:04.226Z,6.25
2019-06-08T21:48:34.069Z,5.87
2019-06-08T21:51:03.942Z,5.75
2019-06-08T21:53:33.749Z,5.53
2019-06-08T21:56:03.602Z,5.83
2019-06-08T21:58:33.466Z,5.22
2019-06-08T22:01:03.478Z,7.12
2019-06-08T22:03:34.393Z,9.73
2019-06-08T22:06:04.332Z,5.72
2019-06-08T22:08:34.482Z,4.85
2019-06-08T22:11:04.402Z,9.35
2019-06-08T22:13:37.214Z,5.55
2019-06-08T22:16:08.041Z,5.53
2019-06-08T22:18:38.168Z,6.22
2019-06-08T22:21:08.360Z,7.58
2019-06-08T22:23:38.301Z,8.73
2019-06-08T22:26:08.479Z,5.33
2019-06-08T22:28:38.367Z,6.67
2019-06-08T22:31:08.317Z,7.20
2019-06-08T22:33:38.197Z,6.12
2019-06-08T22:36:09.105Z,6.43
2019-06-08T22:38:39.328Z,6.80
2019-06-08T22:41:09.297Z,5.15
2019-06-08T22:43:39.205Z,5.10
2019-06-08T22:46:09.058Z,4.20
2019-06-08T22:48:38.845Z,5.05
2019-06-08T22:51:08.625Z,6.42
2019-06-08T22:53:38.572Z,4.65
2019-06-08T22:56:09.554Z,5.60
2019-06-08T22:58:40.666Z,5.42
2019-06-08T23:01:11.538Z,6.07
2019-06-08T23:03:41.605Z,3.77
2019-06-08T23:06:11.337Z,8.13
2019-06-08T23:08:41.245Z,6.50
2019-06-08T23:11:11.102Z,4.87
2019-06-08T23:13:41.038Z,4.12
2019-06-08T23:16:10.994Z,8.63
2019-06-08T23:18:40.770Z,4.35
2019-06-08T23:21:10.609Z,5.70
2019-06-08T23:23:40.642Z,8.80
2019-06-08T23:26:10.713Z,4.87
2019-06-08T23:28:40.629Z,5.60
2019-06-08T23:31:21.627Z,4.05
2019-06-08T23:33:42.808Z,4.47
2019-06-08T23:38:44.064Z,4.47
2019-06-08T23:41:14.142Z,4.17
2019-06-08T23:43:43.987Z,4.00
2019-06-08T23:46:13.948Z,8.20
2019-06-08T23:48:43.839Z,4.62
2019-06-08T23:51:13.688Z,6.47
2019-06-08T23:53:43.608Z,4.28
2019-06-08T23:56:13.599Z,3.83
2019-06-08T23:58:43.407Z,4.87
